sensor_id;sensor_type;location;lat;lon;timestamp;temperature;humidity
1570;DHT22;778;50.120;8.698;2023-04-06T00:00:54;4.90;99.90
1570;DHT22;778;50.120;8.698;2023-04-06T00:03:22;4.90;99.90
1570;DHT22;778;50.120;8.698;2023-04-06T00:05:52;4.90;99.90
1570;DHT22;778;50.120;8.698;2023-04-06T00:08:20;4.90;99.90
1570;DHT22;778;50.120;8.698;2023-04-06T00:10:50;4.90;99.90
1570;DHT22;778;50.120;8.698;2023-04-06T00:13:20;4.90;99.90
1570;DHT22;778;50.120;8.698;2023-04-06T00:15:49;5.00;99.90
1570;DHT22;778;50.120;8.698;2023-04-06T00:18:17;4.90;99.90
1570;DHT22;778;50.120;8.698;2023-04-06T00:20:46;4.80;99.90
1570;DHT22;778;50.120;8.698;2023-04-06T00:23:15;4.80;99.90
1570;DHT22;778;50.120;8.698;2023-04-06T00:25:43;4.70;99.90
1570;DHT22;778;50.120;8.698;2023-04-06T00:28:12;4.70;99.90
1570;DHT22;778;50.120;8.698;2023-04-06T00:30:42;4.70;99.90
1570;DHT22;778;50.120;8.698;2023-04-06T00:33:11;4.70;99.90
1570;DHT22;778;50.120;8.698;2023-04-06T00:35:40;4.60;99.90
1570;DHT22;778;50.120;8.698;2023-04-06T00:38:08;4.50;99.90
1570;DHT22;778;50.120;8.698;2023-04-06T00:40:37;4.60;99.90
1570;DHT22;778;50.120;8.698;2023-04-06T00:43:06;4.50;99.90
1570;DHT22;778;50.120;8.698;2023-04-06T00:45:36;4.60;99.90
1570;DHT22;778;50.120;8.698;2023-04-06T00:48:06;4.50;99.90
1570;DHT22;778;50.120;8.698;2023-04-06T00:50:35;4.50;99.90
1570;DHT22;778;50.120;8.698;2023-04-06T00:53:04;4.50;99.90
1570;DHT22;778;50.120;8.698;2023-04-06T00:55:32;4.40;99.90
1570;DHT22;778;50.120;8.698;2023-04-06T00:58:03;4.30;99.90
1570;DHT22;778;50.120;8.698;2023-04-06T01:00:40;4.20;99.90
1570;DHT22;778;50.120;8.698;2023-04-06T01:03:15;4.30;99.90
1570;DHT22;778;50.120;8.698;2023-04-06T01:05:44;4.10;99.90
1570;DHT22;778;50.120;8.698;2023-04-06T01:08:19;3.90;99.90
1570;DHT22;778;50.120;8.698;2023-04-06T01:10:52;3.80;99.90
1570;DHT22;778;50.120;8.698;2023-04-06T01:13:25;3.80;99.90
1570;DHT22;778;50.120;8.698;2023-04-06T01:15:58;3.90;99.90
1570;DHT22;778;50.120;8.698;2023-04-06T01:18:37;3.90;99.90
1570;DHT22;778;50.120;8.698;2023-04-06T01:21:19;3.80;99.90
1570;DHT22;778;50.120;8.698;2023-04-06T01:24:09;3.70;99.90
1570;DHT22;778;50.120;8.698;2023-04-06T01:26:53;3.60;99.90
1570;DHT22;778;50.120;8.698;2023-04-06T01:29:25;3.60;99.90
1570;DHT22;778;50.120;8.698;2023-04-06T01:31:54;3.70;99.90
1570;DHT22;778;50.120;8.698;2023-04-06T01:34:24;3.60;99.90
1570;DHT22;778;50.120;8.698;2023-04-06T01:36:55;3.60;99.90
1570;DHT22;778;50.120;8.698;2023-04-06T01:39:30;3.70;99.90
1570;DHT22;778;50.120;8.698;2023-04-06T01:42:02;3.60;99.90
1570;DHT22;778;50.120;8.698;2023-04-06T01:44:33;3.60;99.90
1570;DHT22;778;50.120;8.698;2023-04-06T01:47:12;3.50;99.90
1570;DHT22;778;50.120;8.698;2023-04-06T01:49:42;3.50;99.90
1570;DHT22;778;50.120;8.698;2023-04-06T01:52:10;3.40;99.90
1570;DHT22;778;50.120;8.698;2023-04-06T01:54:44;3.50;99.90
1570;DHT22;778;50.120;8.698;2023-04-06T01:57:21;3.50;99.90
1570;DHT22;778;50.120;8.698;2023-04-06T01:59:56;3.40;99.90
1570;DHT22;778;50.120;8.698;2023-04-06T02:02:39;3.30;99.90
1570;DHT22;778;50.120;8.698;2023-04-06T02:05:16;3.30;99.90
1570;DHT22;778;50.120;8.698;2023-04-06T02:07:45;3.20;99.90
1570;DHT22;778;50.120;8.698;2023-04-06T02:10:19;3.10;99.90
1570;DHT22;778;50.120;8.698;2023-04-06T02:12:48;3.10;99.90
1570;DHT22;778;50.120;8.698;2023-04-06T02:15:23;3.20;99.90
1570;DHT22;778;50.120;8.698;2023-04-06T02:17:52;3.20;99.90
1570;DHT22;778;50.120;8.698;2023-04-06T02:20:21;3.20;99.90
1570;DHT22;778;50.120;8.698;2023-04-06T02:22:49;3.20;99.90
1570;DHT22;778;50.120;8.698;2023-04-06T02:25:19;3.20;99.90
1570;DHT22;778;50.120;8.698;2023-04-06T02:27:48;3.20;99.90
1570;DHT22;778;50.120;8.698;2023-04-06T02:30:16;3.20;99.90
1570;DHT22;778;50.120;8.698;2023-04-06T02:32:45;3.60;99.90
1570;DHT22;778;50.120;8.698;2023-04-06T02:35:14;3.80;99.90
1570;DHT22;778;50.120;8.698;2023-04-06T02:37:44;3.80;99.90
1570;DHT22;778;50.120;8.698;2023-04-06T02:40:14;3.80;99.90
1570;DHT22;778;50.120;8.698;2023-04-06T02:42:44;4.00;99.90
1570;DHT22;778;50.120;8.698;2023-04-06T02:45:15;4.20;99.90
1570;DHT22;778;50.120;8.698;2023-04-06T02:47:46;4.30;99.90
1570;DHT22;778;50.120;8.698;2023-04-06T02:50:16;4.20;99.90
1570;DHT22;778;50.120;8.698;2023-04-06T02:52:53;4.00;99.90
1570;DHT22;778;50.120;8.698;2023-04-06T02:55:22;3.70;99.90
1570;DHT22;778;50.120;8.698;2023-04-06T02:57:52;3.50;99.90
1570;DHT22;778;50.120;8.698;2023-04-06T03:00:26;3.30;99.90
1570;DHT22;778;50.120;8.698;2023-04-06T03:02:54;3.30;99.90
1570;DHT22;778;50.120;8.698;2023-04-06T03:05:25;3.20;99.90
1570;DHT22;778;50.120;8.698;2023-04-06T03:07:54;3.00;99.90
1570;DHT22;778;50.120;8.698;2023-04-06T03:10:32;3.00;99.90
1570;DHT22;778;50.120;8.698;2023-04-06T03:13:02;3.00;99.90
1570;DHT22;778;50.120;8.698;2023-04-06T03:16:03;2.90;99.90
1570;DHT22;778;50.120;8.698;2023-04-06T03:18:32;2.90;99.90
1570;DHT22;778;50.120;8.698;2023-04-06T03:21:01;2.90;99.90
1570;DHT22;778;50.120;8.698;2023-04-06T03:23:43;2.70;99.90
1570;DHT22;778;50.120;8.698;2023-04-06T03:26:12;2.60;99.90
1570;DHT22;778;50.120;8.698;2023-04-06T03:28:42;2.70;99.90
1570;DHT22;778;50.120;8.698;2023-04-06T03:31:10;2.80;99.90
1570;DHT22;778;50.120;8.698;2023-04-06T03:33:39;2.80;99.90
1570;DHT22;778;50.120;8.698;2023-04-06T03:36:12;2.80;99.90
1570;DHT22;778;50.120;8.698;2023-04-06T03:38:43;2.60;99.90
1570;DHT22;778;50.120;8.698;2023-04-06T03:41:13;2.60;99.90
1570;DHT22;778;50.120;8.698;2023-04-06T03:43:54;2.60;99.90
1570;DHT22;778;50.120;8.698;2023-04-06T03:46:23;2.50;99.90
1570;DHT22;778;50.120;8.698;2023-04-06T03:48:55;2.50;99.90
1570;DHT22;778;50.120;8.698;2023-04-06T03:51:24;2.40;99.90
1570;DHT22;778;50.120;8.698;2023-04-06T03:53:53;2.30;99.90
1570;DHT22;778;50.120;8.698;2023-04-06T03:56:21;2.30;99.90
1570;DHT22;778;50.120;8.698;2023-04-06T03:58:50;2.30;99.90
1570;DHT22;778;50.120;8.698;2023-04-06T04:01:22;2.40;99.90
1570;DHT22;778;50.120;8.698;2023-04-06T04:03:50;2.20;99.90
1570;DHT22;778;50.120;8.698;2023-04-06T04:06:19;2.30;99.90
1570;DHT22;778;50.120;8.698;2023-04-06T04:08:48;2.30;99.90
1570;DHT22;778;50.120;8.698;2023-04-06T04:11:17;2.40;99.90
1570;DHT22;778;50.120;8.698;2023-04-06T04:13:49;2.40;99.90
1570;DHT22;778;50.120;8.698;2023-04-06T04:16:18;2.40;99.90
1570;DHT22;778;50.120;8.698;2023-04-06T04:18:48;2.40;99.90
1570;DHT22;778;50.120;8.698;2023-04-06T04:21:17;2.40;99.90
1570;DHT22;778;50.120;8.698;2023-04-06T04:23:46;2.40;99.90
1570;DHT22;778;50.120;8.698;2023-04-06T04:26:14;2.40;99.90
1570;DHT22;778;50.120;8.698;2023-04-06T04:28:45;2.40;99.90
1570;DHT22;778;50.120;8.698;2023-04-06T04:31:14;2.30;99.90
1570;DHT22;778;50.120;8.698;2023-04-06T04:33:50;2.30;99.90
1570;DHT22;778;50.120;8.698;2023-04-06T04:36:25;2.40;99.90
1570;DHT22;778;50.120;8.698;2023-04-06T04:38:56;2.40;99.90
1570;DHT22;778;50.120;8.698;2023-04-06T04:41:31;2.40;99.90
1570;DHT22;778;50.120;8.698;2023-04-06T04:44:00;2.20;99.90
1570;DHT22;778;50.120;8.698;2023-04-06T04:46:29;2.30;99.90
1570;DHT22;778;50.120;8.698;2023-04-06T04:49:00;2.30;99.90
1570;DHT22;778;50.120;8.698;2023-04-06T04:51:30;2.30;99.90
1570;DHT22;778;50.120;8.698;2023-04-06T04:54:09;2.20;99.90
1570;DHT22;778;50.120;8.698;2023-04-06T04:56:39;2.20;99.90
1570;DHT22;778;50.120;8.698;2023-04-06T04:59:21;2.20;99.90
1570;DHT22;778;50.120;8.698;2023-04-06T05:02:02;2.20;99.90
1570;DHT22;778;50.120;8.698;2023-04-06T05:04:42;2.20;99.90
1570;DHT22;778;50.120;8.698;2023-04-06T05:07:17;2.20;99.90
1570;DHT22;778;50.120;8.698;2023-04-06T05:09:48;2.20;99.90
1570;DHT22;778;50.120;8.698;2023-04-06T05:12:19;2.10;99.90
1570;DHT22;778;50.120;8.698;2023-04-06T05:14:58;2.10;99.90
1570;DHT22;778;50.120;8.698;2023-04-06T05:17:27;2.20;99.90
1570;DHT22;778;50.120;8.698;2023-04-06T05:19:57;2.20;99.90
1570;DHT22;778;50.120;8.698;2023-04-06T05:22:28;2.10;99.90
1570;DHT22;778;50.120;8.698;2023-04-06T05:25:04;2.10;99.90
1570;DHT22;778;50.120;8.698;2023-04-06T05:27:33;2.20;99.90
1570;DHT22;778;50.120;8.698;2023-04-06T05:30:08;2.20;99.90
1570;DHT22;778;50.120;8.698;2023-04-06T05:32:43;2.30;99.90
1570;DHT22;778;50.120;8.698;2023-04-06T05:35:13;2.40;99.90
1570;DHT22;778;50.120;8.698;2023-04-06T05:37:45;2.40;99.90
1570;DHT22;778;50.120;8.698;2023-04-06T05:40:14;2.40;99.90
1570;DHT22;778;50.120;8.698;2023-04-06T05:42:43;2.50;99.90
1570;DHT22;778;50.120;8.698;2023-04-06T05:45:12;2.50;99.90
1570;DHT22;778;50.120;8.698;2023-04-06T05:47:47;2.50;99.90
1570;DHT22;778;50.120;8.698;2023-04-06T05:50:26;2.50;99.90
1570;DHT22;778;50.120;8.698;2023-04-06T05:52:56;2.50;99.90
1570;DHT22;778;50.120;8.698;2023-04-06T05:55:30;2.50;99.90
1570;DHT22;778;50.120;8.698;2023-04-06T05:58:09;2.60;99.90
1570;DHT22;778;50.120;8.698;2023-04-06T06:00:38;2.50;99.90
1570;DHT22;778;50.120;8.698;2023-04-06T06:03:08;2.50;99.90
1570;DHT22;778;50.120;8.698;2023-04-06T06:05:41;2.50;99.90
1570;DHT22;778;50.120;8.698;2023-04-06T06:08:16;2.60;99.90
1570;DHT22;778;50.120;8.698;2023-04-06T06:10:47;2.50;99.90
1570;DHT22;778;50.120;8.698;2023-04-06T06:13:19;2.50;99.90
1570;DHT22;778;50.120;8.698;2023-04-06T06:15:48;2.60;99.90
1570;DHT22;778;50.120;8.698;2023-04-06T06:18:19;2.60;99.90
1570;DHT22;778;50.120;8.698;2023-04-06T06:20:52;2.70;99.90
1570;DHT22;778;50.120;8.698;2023-04-06T06:23:21;2.70;99.90
1570;DHT22;778;50.120;8.698;2023-04-06T06:25:49;2.80;99.90
1570;DHT22;778;50.120;8.698;2023-04-06T06:28:21;2.90;99.90
1570;DHT22;778;50.120;8.698;2023-04-06T06:30:50;2.90;99.90
1570;DHT22;778;50.120;8.698;2023-04-06T06:33:21;3.00;99.90
1570;DHT22;778;50.120;8.698;2023-04-06T06:35:54;3.10;99.90
1570;DHT22;778;50.120;8.698;2023-04-06T06:38:23;3.20;99.90
1570;DHT22;778;50.120;8.698;2023-04-06T06:40:52;3.20;99.90
1570;DHT22;778;50.120;8.698;2023-04-06T06:43:23;3.30;99.90
1570;DHT22;778;50.120;8.698;2023-04-06T06:45:58;3.40;99.90
1570;DHT22;778;50.120;8.698;2023-04-06T06:48:26;3.50;99.90
1570;DHT22;778;50.120;8.698;2023-04-06T06:50:56;3.60;99.90
1570;DHT22;778;50.120;8.698;2023-04-06T06:53:26;3.70;99.90
1570;DHT22;778;50.120;8.698;2023-04-06T06:55:55;4.10;99.90
1570;DHT22;778;50.120;8.698;2023-04-06T06:58:24;4.10;99.90
1570;DHT22;778;50.120;8.698;2023-04-06T07:00:56;4.10;99.90
1570;DHT22;778;50.120;8.698;2023-04-06T07:03:27;4.20;99.90
1570;DHT22;778;50.120;8.698;2023-04-06T07:05:59;4.50;99.90
1570;DHT22;778;50.120;8.698;2023-04-06T07:08:28;4.80;99.90
1570;DHT22;778;50.120;8.698;2023-04-06T07:10:57;5.30;99.90
1570;DHT22;778;50.120;8.698;2023-04-06T07:13:26;5.60;99.90
1570;DHT22;778;50.120;8.698;2023-04-06T07:15:57;5.90;99.90
1570;DHT22;778;50.120;8.698;2023-04-06T07:18:26;6.30;99.90
1570;DHT22;778;50.120;8.698;2023-04-06T07:20:55;6.70;99.90
1570;DHT22;778;50.120;8.698;2023-04-06T07:23:25;7.00;99.90
1570;DHT22;778;50.120;8.698;2023-04-06T07:25:54;7.70;99.90
1570;DHT22;778;50.120;8.698;2023-04-06T07:28:23;8.20;94.20
1570;DHT22;778;50.120;8.698;2023-04-06T07:30:53;8.40;91.90
1570;DHT22;778;50.120;8.698;2023-04-06T07:33:22;8.80;90.10
1570;DHT22;778;50.120;8.698;2023-04-06T07:35:50;9.00;87.40
1570;DHT22;778;50.120;8.698;2023-04-06T07:38:19;9.50;84.80
1570;DHT22;778;50.120;8.698;2023-04-06T07:40:50;9.60;81.50
1570;DHT22;778;50.120;8.698;2023-04-06T07:43:19;9.60;78.50
1570;DHT22;778;50.120;8.698;2023-04-06T07:45:48;9.90;77.90
1570;DHT22;778;50.120;8.698;2023-04-06T07:48:17;10.20;73.10
1570;DHT22;778;50.120;8.698;2023-04-06T07:50:45;10.40;79.50
1570;DHT22;778;50.120;8.698;2023-04-06T07:53:15;10.70;72.70
1570;DHT22;778;50.120;8.698;2023-04-06T07:55:45;10.90;69.70
1570;DHT22;778;50.120;8.698;2023-04-06T07:58:15;11.00;67.70
1570;DHT22;778;50.120;8.698;2023-04-06T08:00:44;11.30;66.70
1570;DHT22;778;50.120;8.698;2023-04-06T08:03:12;11.50;65.00
1570;DHT22;778;50.120;8.698;2023-04-06T08:05:41;11.40;64.60
1570;DHT22;778;50.120;8.698;2023-04-06T08:08:10;11.50;65.00
1570;DHT22;778;50.120;8.698;2023-04-06T08:10:39;11.80;65.00
1570;DHT22;778;50.120;8.698;2023-04-06T08:13:07;12.10;62.20
1570;DHT22;778;50.120;8.698;2023-04-06T08:15:37;12.50;58.60
1570;DHT22;778;50.120;8.698;2023-04-06T08:18:06;12.60;60.90
1570;DHT22;778;50.120;8.698;2023-04-06T08:20:35;12.50;60.30
1570;DHT22;778;50.120;8.698;2023-04-06T08:23:04;12.40;60.10
1570;DHT22;778;50.120;8.698;2023-04-06T08:25:34;12.50;57.70
1570;DHT22;778;50.120;8.698;2023-04-06T08:28:04;12.50;56.40
1570;DHT22;778;50.120;8.698;2023-04-06T08:30:33;12.60;56.00
1570;DHT22;778;50.120;8.698;2023-04-06T08:33:03;12.60;55.90
1570;DHT22;778;50.120;8.698;2023-04-06T08:35:32;13.20;54.80
1570;DHT22;778;50.120;8.698;2023-04-06T08:38:01;13.10;53.50
1570;DHT22;778;50.120;8.698;2023-04-06T08:40:29;13.20;53.50
1570;DHT22;778;50.120;8.698;2023-04-06T08:42:59;13.40;53.40
1570;DHT22;778;50.120;8.698;2023-04-06T08:45:35;13.50;52.20
1570;DHT22;778;50.120;8.698;2023-04-06T08:48:06;13.40;52.20
1570;DHT22;778;50.120;8.698;2023-04-06T08:50:35;13.30;52.10
1570;DHT22;778;50.120;8.698;2023-04-06T08:53:05;13.40;53.00
1570;DHT22;778;50.120;8.698;2023-04-06T08:55:35;13.50;52.20
1570;DHT22;778;50.120;8.698;2023-04-06T08:58:06;13.60;51.80
1570;DHT22;778;50.120;8.698;2023-04-06T09:00:37;14.10;51.30
1570;DHT22;778;50.120;8.698;2023-04-06T09:03:08;14.20;50.90
1570;DHT22;778;50.120;8.698;2023-04-06T09:05:40;14.40;49.60
1570;DHT22;778;50.120;8.698;2023-04-06T09:08:08;14.80;49.70
1570;DHT22;778;50.120;8.698;2023-04-06T09:10:40;14.90;49.30
1570;DHT22;778;50.120;8.698;2023-04-06T09:13:09;14.90;49.10
1570;DHT22;778;50.120;8.698;2023-04-06T09:15:38;15.30;48.50
1570;DHT22;778;50.120;8.698;2023-04-06T09:18:08;15.70;47.00
1570;DHT22;778;50.120;8.698;2023-04-06T09:20:37;15.90;46.70
1570;DHT22;778;50.120;8.698;2023-04-06T09:23:05;15.90;46.70
1570;DHT22;778;50.120;8.698;2023-04-06T09:25:34;15.80;46.30
1570;DHT22;778;50.120;8.698;2023-04-06T09:28:04;15.60;46.00
1570;DHT22;778;50.120;8.698;2023-04-06T09:30:34;15.40;46.40
1570;DHT22;778;50.120;8.698;2023-04-06T09:33:03;15.80;46.40
1570;DHT22;778;50.120;8.698;2023-04-06T09:35:33;16.00;46.60
1570;DHT22;778;50.120;8.698;2023-04-06T09:38:10;16.20;45.80
1570;DHT22;778;50.120;8.698;2023-04-06T09:40:48;16.40;45.60
1570;DHT22;778;50.120;8.698;2023-04-06T09:43:27;15.90;45.80
1570;DHT22;778;50.120;8.698;2023-04-06T09:45:56;15.30;47.20
1570;DHT22;778;50.120;8.698;2023-04-06T09:48:26;15.00;47.20
1570;DHT22;778;50.120;8.698;2023-04-06T09:51:01;14.80;47.20
1570;DHT22;778;50.120;8.698;2023-04-06T09:53:35;15.00;47.70
1570;DHT22;778;50.120;8.698;2023-04-06T09:56:11;15.30;47.20
1570;DHT22;778;50.120;8.698;2023-04-06T09:58:42;15.60;47.10
1570;DHT22;778;50.120;8.698;2023-04-06T10:01:14;15.90;46.30
1570;DHT22;778;50.120;8.698;2023-04-06T10:03:47;15.90;46.00
1570;DHT22;778;50.120;8.698;2023-04-06T10:06:23;15.50;46.50
1570;DHT22;778;50.120;8.698;2023-04-06T10:08:55;15.90;48.00
1570;DHT22;778;50.120;8.698;2023-04-06T10:11:24;16.00;46.00
1570;DHT22;778;50.120;8.698;2023-04-06T10:13:54;16.10;45.90
1570;DHT22;778;50.120;8.698;2023-04-06T10:16:23;16.00;46.40
1570;DHT22;778;50.120;8.698;2023-04-06T10:18:58;15.80;46.00
1570;DHT22;778;50.120;8.698;2023-04-06T10:21:36;16.10;46.20
1570;DHT22;778;50.120;8.698;2023-04-06T10:24:08;16.50;46.60
1570;DHT22;778;50.120;8.698;2023-04-06T10:26:39;16.50;44.90
1570;DHT22;778;50.120;8.698;2023-04-06T10:29:08;16.10;45.70
1570;DHT22;778;50.120;8.698;2023-04-06T10:31:41;15.90;45.80
1570;DHT22;778;50.120;8.698;2023-04-06T10:34:11;16.00;45.40
1570;DHT22;778;50.120;8.698;2023-04-06T10:36:42;16.10;45.40
1570;DHT22;778;50.120;8.698;2023-04-06T10:39:11;16.20;45.30
1570;DHT22;778;50.120;8.698;2023-04-06T10:41:41;16.30;45.50
1570;DHT22;778;50.120;8.698;2023-04-06T10:44:17;16.70;45.00
1570;DHT22;778;50.120;8.698;2023-04-06T10:46:55;16.60;44.10
1570;DHT22;778;50.120;8.698;2023-04-06T10:49:27;16.80;44.70
1570;DHT22;778;50.120;8.698;2023-04-06T10:51:57;16.70;44.20
1570;DHT22;778;50.120;8.698;2023-04-06T10:54:27;16.40;45.10
1570;DHT22;778;50.120;8.698;2023-04-06T10:56:56;16.30;46.10
1570;DHT22;778;50.120;8.698;2023-04-06T10:59:24;16.20;47.60
1570;DHT22;778;50.120;8.698;2023-04-06T11:01:53;16.10;46.20
1570;DHT22;778;50.120;8.698;2023-04-06T11:04:22;16.20;46.10
1570;DHT22;778;50.120;8.698;2023-04-06T11:06:51;16.20;47.00
1570;DHT22;778;50.120;8.698;2023-04-06T11:09:26;16.20;44.80
1570;DHT22;778;50.120;8.698;2023-04-06T11:11:55;16.40;45.90
1570;DHT22;778;50.120;8.698;2023-04-06T11:14:24;16.70;44.80
1570;DHT22;778;50.120;8.698;2023-04-06T11:16:53;16.70;46.50
1570;DHT22;778;50.120;8.698;2023-04-06T11:19:22;16.30;45.00
1570;DHT22;778;50.120;8.698;2023-04-06T11:21:51;16.10;46.20
1570;DHT22;778;50.120;8.698;2023-04-06T11:24:20;15.90;45.40
1570;DHT22;778;50.120;8.698;2023-04-06T11:26:52;16.10;47.70
1570;DHT22;778;50.120;8.698;2023-04-06T11:29:24;16.20;45.70
1570;DHT22;778;50.120;8.698;2023-04-06T11:31:57;16.30;46.70
1570;DHT22;778;50.120;8.698;2023-04-06T11:34:29;16.80;45.90
1570;DHT22;778;50.120;8.698;2023-04-06T11:36:59;16.80;44.20
1570;DHT22;778;50.120;8.698;2023-04-06T11:39:29;16.80;44.70
1570;DHT22;778;50.120;8.698;2023-04-06T11:42:01;16.60;44.40
1570;DHT22;778;50.120;8.698;2023-04-06T11:44:34;16.50;44.50
1570;DHT22;778;50.120;8.698;2023-04-06T11:47:06;16.30;43.50
1570;DHT22;778;50.120;8.698;2023-04-06T11:49:37;16.40;45.20
1570;DHT22;778;50.120;8.698;2023-04-06T11:52:14;16.30;43.30
1570;DHT22;778;50.120;8.698;2023-04-06T11:54:45;16.00;44.50
1570;DHT22;778;50.120;8.698;2023-04-06T11:57:16;16.10;43.70
1570;DHT22;778;50.120;8.698;2023-04-06T11:59:46;16.10;44.00
1570;DHT22;778;50.120;8.698;2023-04-06T12:02:15;15.70;43.80
1570;DHT22;778;50.120;8.698;2023-04-06T12:04:44;15.70;45.10
1570;DHT22;778;50.120;8.698;2023-04-06T12:07:13;15.80;43.30
1570;DHT22;778;50.120;8.698;2023-04-06T12:09:43;15.90;44.00
1570;DHT22;778;50.120;8.698;2023-04-06T12:12:11;15.90;44.30
1570;DHT22;778;50.120;8.698;2023-04-06T12:14:41;15.80;44.00
1570;DHT22;778;50.120;8.698;2023-04-06T12:17:10;15.70;43.60
1570;DHT22;778;50.120;8.698;2023-04-06T12:19:38;15.40;44.40
1570;DHT22;778;50.120;8.698;2023-04-06T12:22:07;15.30;44.00
1570;DHT22;778;50.120;8.698;2023-04-06T12:24:36;15.50;44.70
1570;DHT22;778;50.120;8.698;2023-04-06T12:27:04;15.40;43.10
1570;DHT22;778;50.120;8.698;2023-04-06T12:29:36;15.50;43.60
1570;DHT22;778;50.120;8.698;2023-04-06T12:32:06;15.50;43.50
1570;DHT22;778;50.120;8.698;2023-04-06T12:34:35;15.60;41.80
1570;DHT22;778;50.120;8.698;2023-04-06T12:37:04;15.70;42.30
1570;DHT22;778;50.120;8.698;2023-04-06T12:39:32;15.70;42.50
1570;DHT22;778;50.120;8.698;2023-04-06T12:42:01;15.70;43.00
1570;DHT22;778;50.120;8.698;2023-04-06T12:44:30;15.60;43.10
1570;DHT22;778;50.120;8.698;2023-04-06T12:46:58;15.70;42.70
1570;DHT22;778;50.120;8.698;2023-04-06T12:49:30;15.90;44.80
1570;DHT22;778;50.120;8.698;2023-04-06T12:51:58;16.00;45.10
1570;DHT22;778;50.120;8.698;2023-04-06T12:54:27;15.90;40.80
1570;DHT22;778;50.120;8.698;2023-04-06T12:56:56;15.80;42.80
1570;DHT22;778;50.120;8.698;2023-04-06T12:59:24;15.90;43.20
1570;DHT22;778;50.120;8.698;2023-04-06T13:01:53;15.80;44.00
1570;DHT22;778;50.120;8.698;2023-04-06T13:04:23;15.80;43.20
1570;DHT22;778;50.120;8.698;2023-04-06T13:06:53;15.80;44.10
1570;DHT22;778;50.120;8.698;2023-04-06T13:09:21;15.80;44.30
1570;DHT22;778;50.120;8.698;2023-04-06T13:11:50;15.80;43.50
1570;DHT22;778;50.120;8.698;2023-04-06T13:14:18;15.80;44.40
1570;DHT22;778;50.120;8.698;2023-04-06T13:16:47;15.70;43.10
1570;DHT22;778;50.120;8.698;2023-04-06T13:19:16;15.70;41.50
1570;DHT22;778;50.120;8.698;2023-04-06T13:21:45;15.70;43.20
1570;DHT22;778;50.120;8.698;2023-04-06T13:24:15;15.70;44.10
1570;DHT22;778;50.120;8.698;2023-04-06T13:26:44;15.70;43.20
1570;DHT22;778;50.120;8.698;2023-04-06T13:29:12;15.60;42.90
1570;DHT22;778;50.120;8.698;2023-04-06T13:31:41;15.40;43.20
1570;DHT22;778;50.120;8.698;2023-04-06T13:34:09;15.40;43.80
1570;DHT22;778;50.120;8.698;2023-04-06T13:36:38;15.40;41.90
1570;DHT22;778;50.120;8.698;2023-04-06T13:39:08;15.30;44.30
1570;DHT22;778;50.120;8.698;2023-04-06T13:41:38;15.20;43.70
1570;DHT22;778;50.120;8.698;2023-04-06T13:44:07;15.20;42.40
1570;DHT22;778;50.120;8.698;2023-04-06T13:46:36;15.30;42.90
1570;DHT22;778;50.120;8.698;2023-04-06T13:49:05;15.40;44.80
1570;DHT22;778;50.120;8.698;2023-04-06T13:51:33;15.40;42.50
1570;DHT22;778;50.120;8.698;2023-04-06T13:54:02;15.40;42.70
1570;DHT22;778;50.120;8.698;2023-04-06T13:56:30;15.40;42.50
1570;DHT22;778;50.120;8.698;2023-04-06T13:59:00;15.50;42.10
1570;DHT22;778;50.120;8.698;2023-04-06T14:01:29;15.40;42.80
1570;DHT22;778;50.120;8.698;2023-04-06T14:03:57;15.30;43.50
1570;DHT22;778;50.120;8.698;2023-04-06T14:06:26;15.30;43.30
1570;DHT22;778;50.120;8.698;2023-04-06T14:08:57;15.10;43.20
1570;DHT22;778;50.120;8.698;2023-04-06T14:11:26;15.20;43.70
1570;DHT22;778;50.120;8.698;2023-04-06T14:13:54;15.30;44.00
1570;DHT22;778;50.120;8.698;2023-04-06T14:16:26;15.40;43.10
1570;DHT22;778;50.120;8.698;2023-04-06T14:18:54;15.40;43.80
1570;DHT22;778;50.120;8.698;2023-04-06T14:21:24;15.30;43.70
1570;DHT22;778;50.120;8.698;2023-04-06T14:23:53;15.30;43.80
1570;DHT22;778;50.120;8.698;2023-04-06T14:26:25;15.10;43.50
1570;DHT22;778;50.120;8.698;2023-04-06T14:28:54;15.00;43.40
1570;DHT22;778;50.120;8.698;2023-04-06T14:31:23;15.00;44.00
1570;DHT22;778;50.120;8.698;2023-04-06T14:33:53;15.00;43.60
1570;DHT22;778;50.120;8.698;2023-04-06T14:36:21;14.90;43.40
1570;DHT22;778;50.120;8.698;2023-04-06T14:38:50;14.90;44.00
1570;DHT22;778;50.120;8.698;2023-04-06T14:41:21;14.90;43.70
1570;DHT22;778;50.120;8.698;2023-04-06T14:43:51;14.90;44.20
1570;DHT22;778;50.120;8.698;2023-04-06T14:46:20;14.70;44.20
1570;DHT22;778;50.120;8.698;2023-04-06T14:48:48;14.80;44.60
1570;DHT22;778;50.120;8.698;2023-04-06T14:51:19;14.80;44.30
1570;DHT22;778;50.120;8.698;2023-04-06T14:53:47;14.90;44.30
1570;DHT22;778;50.120;8.698;2023-04-06T14:56:19;14.90;43.70
1570;DHT22;778;50.120;8.698;2023-04-06T14:58:49;14.90;44.00
1570;DHT22;778;50.120;8.698;2023-04-06T15:01:18;14.90;44.30
1570;DHT22;778;50.120;8.698;2023-04-06T15:03:47;14.90;43.70
1570;DHT22;778;50.120;8.698;2023-04-06T15:06:19;14.90;44.20
1570;DHT22;778;50.120;8.698;2023-04-06T15:08:48;14.90;44.20
1570;DHT22;778;50.120;8.698;2023-04-06T15:11:17;14.80;43.80
1570;DHT22;778;50.120;8.698;2023-04-06T15:13:45;14.70;43.70
1570;DHT22;778;50.120;8.698;2023-04-06T15:16:14;14.80;44.50
1570;DHT22;778;50.120;8.698;2023-04-06T15:18:42;14.70;44.10
1570;DHT22;778;50.120;8.698;2023-04-06T15:21:11;14.50;43.90
1570;DHT22;778;50.120;8.698;2023-04-06T15:23:40;14.40;43.80
1570;DHT22;778;50.120;8.698;2023-04-06T15:26:09;14.40;44.10
1570;DHT22;778;50.120;8.698;2023-04-06T15:28:37;14.40;43.80
1570;DHT22;778;50.120;8.698;2023-04-06T15:31:13;14.50;44.70
1570;DHT22;778;50.120;8.698;2023-04-06T15:33:59;14.50;45.30
1570;DHT22;778;50.120;8.698;2023-04-06T15:36:28;14.40;45.00
1570;DHT22;778;50.120;8.698;2023-04-06T15:38:58;14.40;44.80
1570;DHT22;778;50.120;8.698;2023-04-06T15:41:27;14.40;44.60
1570;DHT22;778;50.120;8.698;2023-04-06T15:43:55;14.40;44.00
1570;DHT22;778;50.120;8.698;2023-04-06T15:46:24;14.50;45.00
1570;DHT22;778;50.120;8.698;2023-04-06T15:48:54;14.40;46.20
1570;DHT22;778;50.120;8.698;2023-04-06T15:51:23;14.40;44.80
1570;DHT22;778;50.120;8.698;2023-04-06T15:53:52;14.30;44.60
1570;DHT22;778;50.120;8.698;2023-04-06T15:56:22;14.30;45.50
1570;DHT22;778;50.120;8.698;2023-04-06T15:58:50;14.30;44.40
1570;DHT22;778;50.120;8.698;2023-04-06T16:01:19;14.30;45.90
1570;DHT22;778;50.120;8.698;2023-04-06T16:03:47;14.30;44.30
1570;DHT22;778;50.120;8.698;2023-04-06T16:06:16;14.30;46.70
1570;DHT22;778;50.120;8.698;2023-04-06T16:08:44;14.20;45.10
1570;DHT22;778;50.120;8.698;2023-04-06T16:11:15;14.10;45.20
1570;DHT22;778;50.120;8.698;2023-04-06T16:13:45;14.20;47.10
1570;DHT22;778;50.120;8.698;2023-04-06T16:16:21;14.20;46.40
1570;DHT22;778;50.120;8.698;2023-04-06T16:18:49;14.20;46.10
1570;DHT22;778;50.120;8.698;2023-04-06T16:21:18;14.10;46.00
1570;DHT22;778;50.120;8.698;2023-04-06T16:23:47;14.10;45.50
1570;DHT22;778;50.120;8.698;2023-04-06T16:26:16;14.00;45.50
1570;DHT22;778;50.120;8.698;2023-04-06T16:28:46;13.90;45.10
1570;DHT22;778;50.120;8.698;2023-04-06T16:31:19;13.80;45.60
1570;DHT22;778;50.120;8.698;2023-04-06T16:33:49;13.80;46.20
1570;DHT22;778;50.120;8.698;2023-04-06T16:36:22;13.80;46.50
1570;DHT22;778;50.120;8.698;2023-04-06T16:38:51;13.70;46.50
1570;DHT22;778;50.120;8.698;2023-04-06T16:41:19;13.60;47.40
1570;DHT22;778;50.120;8.698;2023-04-06T16:43:49;13.50;46.80
1570;DHT22;778;50.120;8.698;2023-04-06T16:46:19;13.40;47.40